West Farmington, Ohio
Current Conditions -  °F | °C
As of 12:51 PM on Saturday 20 Dec 2014 (Local Time) from KYNG Reporting Station
Overcast Overcast  
Wind Chill: 29°   Ceiling: 2200
Heat Index: 29°   Visibility: 10mi
Dew Point: 20°   Wind: 3mph
Humidity: 69%   Direction: 280°W
Pressure: 30.23"   Gusts: NA
Location:  41.39°N, 80.97°W
Report Text: KYNG 201751Z 28003KT 10SM OVC022 M02/M07 A3023 RMK AO2 SLP253 T10171067 11017 21028 58013
Loading
Personal Weather Stations






























Interactive Weather Map New forecast layout! Learn more

10-Day Weather Forecast

Advertisements
Track Severe Weather on mobile